Time;durP1;ratioP1;P1;durP2;ratioP2;P2;SDS_P1;SDS_P2;PMS_P1;PMS_P2;Temp;Humidity;BMP_temperature;BMP_pressure;BME280_temperature;BME280_humidity;BME280_pressure;Samples;Min_cycle;Max_cycle;Signal;HPM_P1;HPM_P2
2023/09/05 00:00:12;;;;;;;13.73;7.47;;;15.80;95.50;;;;;;4942592;29;20039;-86
2023/09/05 00:02:39;;;;;;;11.77;7.53;;;15.80;95.50;;;;;;4952663;28;20114;-87
2023/09/05 00:05:08;;;;;;;14.82;7.55;;;15.80;95.50;;;;;;4931434;29;20028;-87
2023/09/05 00:07:37;;;;;;;16.23;8.15;;;15.80;95.50;;;;;;4936940;29;20494;-87
2023/09/05 00:10:10;;;;;;;16.23;8.35;;;15.80;95.50;;;;;;4937074;29;20374;-87
2023/09/05 00:12:40;;;;;;;16.55;7.32;;;15.80;95.50;;;;;;4937445;29;20034;-86
2023/09/05 00:15:11;;;;;;;14.70;7.88;;;15.80;95.50;;;;;;4924377;29;20494;-87
2023/09/05 00:17:38;;;;;;;14.02;7.78;;;15.70;95.50;;;;;;4943722;29;20032;-86
2023/09/05 00:20:05;;;;;;;18.48;7.28;;;15.70;95.60;;;;;;4940937;29;20426;-87
2023/09/05 00:22:31;;;;;;;11.55;7.13;;;15.70;95.60;;;;;;4935757;29;20106;-87
2023/09/05 00:24:57;;;;;;;11.48;6.97;;;15.70;95.70;;;;;;4936128;29;20103;-87
2023/09/05 00:27:22;;;;;;;19.40;8.65;;;15.60;95.70;;;;;;4936658;29;20075;-86
2023/09/05 00:29:48;;;;;;;16.23;6.82;;;15.60;95.70;;;;;;4949955;29;20024;-88
2023/09/05 00:32:14;;;;;;;14.52;7.55;;;15.60;95.80;;;;;;4937506;29;20028;-88
2023/09/05 00:34:41;;;;;;;10.95;7.18;;;15.60;95.90;;;;;;4943137;29;20032;-87
2023/09/05 00:37:08;;;;;;;14.57;7.50;;;15.50;95.90;;;;;;4954793;29;20103;-86
2023/09/05 00:39:34;;;;;;;9.40;6.63;;;15.50;95.90;;;;;;4952342;29;20044;-87
2023/09/05 00:42:03;;;;;;;12.98;7.10;;;15.50;95.90;;;;;;4936267;29;20110;-87
2023/09/05 00:44:29;;;;;;;11.90;7.32;;;15.50;96.00;;;;;;4930932;29;20028;-87
2023/09/05 00:47:00;;;;;;;15.40;7.75;;;15.50;96.00;;;;;;4936440;29;20130;-89
2023/09/05 00:49:29;;;;;;;10.88;7.03;;;15.50;96.10;;;;;;4937577;29;20034;-89
2023/09/05 00:51:59;;;;;;;13.40;7.57;;;15.40;96.20;;;;;;4938174;29;20020;-89
2023/09/05 00:54:25;;;;;;;13.50;8.18;;;15.40;96.40;;;;;;4944116;29;20034;-88
2023/09/05 00:56:52;;;;;;;27.55;8.00;;;15.30;96.70;;;;;;4946283;29;20031;-89
2023/09/05 00:59:20;;;;;;;17.77;7.20;;;15.30;96.80;;;;;;4954122;28;20054;-87
2023/09/05 01:01:46;;;;;;;9.30;6.80;;;15.30;96.90;;;;;;4953598;29;20032;-88
2023/09/05 01:04:13;;;;;;;13.10;6.63;;;15.20;96.90;;;;;;4974675;28;20030;-88
2023/09/05 01:06:39;;;;;;;;;;;15.20;97.10;;;;;;4952517;29;20032;-88
2023/09/05 01:09:28;;;;;;;15.00;8.27;;;15.20;96.80;;;;;;4959523;29;19934;-89
2023/09/05 01:11:56;;;;;;;11.50;7.03;;;15.20;97.10;;;;;;4944805;29;20032;-88
2023/09/05 01:14:21;;;;;;;16.27;6.68;;;15.10;97.20;;;;;;4944061;29;20043;-88
2023/09/05 01:16:47;;;;;;;15.20;6.90;;;15.10;97.40;;;;;;4969876;28;20016;-90
2023/09/05 01:19:15;;;;;;;13.13;6.47;;;15.10;97.50;;;;;;4948021;29;20031;-88
2023/09/05 01:22:07;;;;;;;12.40;7.57;;;15.10;97.50;;;;;;4948168;29;20028;-88
2023/09/05 01:24:35;;;;;;;15.43;7.25;;;15.10;97.40;;;;;;4947580;29;20079;-88
2023/09/05 01:27:03;;;;;;;18.55;7.25;;;15.00;97.60;;;;;;4954748;29;20032;-88
2023/09/05 01:29:34;;;;;;;20.20;8.07;;;15.00;97.60;;;;;;4949068;29;20035;-89
2023/09/05 01:32:03;;;;;;;15.43;7.40;;;15.00;97.80;;;;;;4952343;29;20125;-88
2023/09/05 01:34:33;;;;;;;16.00;7.38;;;15.00;97.80;;;;;;4950986;29;20020;-89
2023/09/05 01:36:58;;;;;;;15.70;7.20;;;15.00;97.80;;;;;;4950301;29;20528;-88
2023/09/05 01:39:25;;;;;;;16.17;7.60;;;15.00;97.90;;;;;;4954314;29;20055;-89
2023/09/05 01:41:51;;;;;;;16.35;7.43;;;15.00;97.90;;;;;;4947547;29;20451;-89
2023/09/05 01:44:17;;;;;;;12.15;6.90;;;15.00;97.80;;;;;;4957543;29;20032;-89
2023/09/05 01:46:43;;;;;;;14.68;6.72;;;14.90;97.80;;;;;;4943094;29;20051;-88
2023/09/05 01:49:09;;;;;;;13.10;7.53;;;14.90;97.80;;;;;;4949281;29;20052;-90
2023/09/05 01:51:34;;;;;;;18.15;7.60;;;14.90;98.00;;;;;;4944542;29;20027;-89
2023/09/05 01:54:00;;;;;;;20.48;7.90;;;14.90;98.30;;;;;;4955714;28;20024;-89
2023/09/05 01:56:26;;;;;;;13.38;7.18;;;14.80;98.10;;;;;;4948623;29;20552;-90
2023/09/05 01:58:52;;;;;;;13.05;7.35;;;14.80;98.10;;;;;;4946606;29;20146;-90
2023/09/05 02:01:18;;;;;;;12.93;7.47;;;14.80;98.10;;;;;;4951143;29;20030;-90
2023/09/05 02:03:44;;;;;;;12.88;6.45;;;14.70;98.20;;;;;;4926513;29;20028;-89
2023/09/05 02:06:10;;;;;;;11.30;7.03;;;14.70;98.20;;;;;;4940071;29;20031;-90
2023/09/05 02:08:36;;;;;;;15.65;7.32;;;14.70;98.30;;;;;;4947376;29;20096;-90
2023/09/05 02:11:02;;;;;;;15.73;7.68;;;14.60;98.40;;;;;;4936084;29;20076;-90
2023/09/05 02:13:31;;;;;;;16.08;7.57;;;14.60;98.40;;;;;;4949920;29;20027;-89
2023/09/05 02:15:57;;;;;;;12.90;7.72;;;14.60;98.40;;;;;;4946655;29;20504;-89
2023/09/05 02:18:23;;;;;;;10.80;6.88;;;14.60;98.50;;;;;;4939219;29;20347;-88
2023/09/05 02:20:49;;;;;;;24.55;8.00;;;14.60;98.60;;;;;;4949273;29;20091;-90
2023/09/05 02:23:15;;;;;;;13.95;7.80;;;14.60;98.70;;;;;;4949251;29;20035;-90
2023/09/05 02:25:42;;;;;;;14.82;7.35;;;14.60;98.70;;;;;;4943460;29;20079;-90
2023/09/05 02:28:07;;;;;;;8.57;6.90;;;14.60;98.70;;;;;;4955934;28;20417;-91
2023/09/05 02:30:42;;;;;;;8.88;6.43;;;14.50;98.60;;;;;;4959105;29;20103;-90
2023/09/05 02:33:08;;;;;;;16.70;7.25;;;14.50;98.60;;;;;;4951316;29;20031;-90
2023/09/05 02:35:34;;;;;;;13.73;7.10;;;14.50;98.70;;;;;;4948774;29;20031;-91
2023/09/05 02:38:00;;;;;;;15.18;7.78;;;14.50;98.70;;;;;;4954639;29;20024;-92
2023/09/05 02:40:26;;;;;;;12.25;6.60;;;14.40;98.70;;;;;;4966756;29;20096;-90
2023/09/05 02:42:51;;;;;;;13.52;6.90;;;14.40;98.70;;;;;;4937071;29;20088;-88
2023/09/05 02:45:17;;;;;;;11.35;7.38;;;14.40;98.80;;;;;;4941420;29;20106;-89
2023/09/05 02:47:43;;;;;;;17.90;8.07;;;14.40;98.70;;;;;;4939947;29;20028;-90
2023/09/05 02:50:09;;;;;;;16.05;7.20;;;14.30;98.80;;;;;;4942799;29;20474;-88
2023/09/05 02:52:36;;;;;;;11.93;7.28;;;14.30;98.90;;;;;;4922917;29;20024;-89
2023/09/05 02:55:03;;;;;;;9.88;6.93;;;14.30;99.00;;;;;;4921915;29;20028;-89
2023/09/05 02:57:29;;;;;;;20.33;7.23;;;14.30;99.10;;;;;;4939292;29;20024;-88
2023/09/05 02:59:55;;;;;;;15.95;6.90;;;14.40;99.20;;;;;;4953594;29;20067;-88
2023/09/05 03:02:23;;;;;;;15.15;7.47;;;14.40;99.20;;;;;;4923064;29;20030;-88
2023/09/05 03:04:53;;;;;;;12.25;6.43;;;14.40;99.30;;;;;;4944483;29;20444;-88
2023/09/05 03:07:20;;;;;;;10.85;7.22;;;14.40;99.40;;;;;;4952943;29;20055;-90
2023/09/05 03:09:49;;;;;;;20.05;6.43;;;14.50;99.30;;;;;;4922565;29;20027;-89
2023/09/05 03:12:15;;;;;;;17.95;7.78;;;14.50;99.20;;;;;;4921685;29;20027;-88
2023/09/05 03:14:40;;;;;;;17.80;7.85;;;14.50;99.20;;;;;;4948708;29;20146;-87
2023/09/05 03:17:09;;;;;;;12.32;6.25;;;14.50;99.20;;;;;;4938534;29;20031;-89
2023/09/05 03:19:36;;;;;;;13.68;7.03;;;14.60;99.20;;;;;;4977405;28;20043;-88
2023/09/05 03:22:02;;;;;;;15.18;6.75;;;14.60;99.00;;;;;;4963266;28;20128;-88
2023/09/05 03:24:28;;;;;;;16.52;7.22;;;14.60;98.80;;;;;;4961767;29;20023;-88
2023/09/05 03:26:54;;;;;;;10.13;6.88;;;14.70;98.80;;;;;;4963195;29;20044;-90
2023/09/05 03:29:20;;;;;;;11.68;7.80;;;14.70;98.60;;;;;;4956411;29;20071;-89
2023/09/05 03:31:46;;;;;;;11.60;7.03;;;14.70;98.50;;;;;;4958261;29;20016;-90
2023/09/05 03:34:12;;;;;;;16.33;7.65;;;14.70;98.50;;;;;;4939166;29;20397;-89
2023/09/05 03:36:37;;;;;;;16.35;7.53;;;14.70;98.50;;;;;;4946976;29;20020;-89
2023/09/05 03:39:03;;;;;;;12.10;7.57;;;14.70;98.40;;;;;;4918368;29;20523;-89
2023/09/05 03:41:30;;;;;;;13.80;7.45;;;14.80;98.30;;;;;;4939237;29;20028;-89
2023/09/05 03:43:56;;;;;;;12.30;7.72;;;14.80;98.30;;;;;;4940002;29;20378;-90
2023/09/05 03:46:22;;;;;;;13.35;7.90;;;14.80;98.20;;;;;;4945986;29;20034;-89
2023/09/05 03:48:49;;;;;;;12.23;7.28;;;14.90;98.10;;;;;;4952167;29;20024;-91
2023/09/05 03:51:15;;;;;;;10.40;8.07;;;14.90;98.00;;;;;;4947110;29;20024;-90
2023/09/05 03:53:41;;;;;;;13.95;7.22;;;14.90;97.90;;;;;;4943859;29;20019;-87
2023/09/05 03:56:07;;;;;;;15.90;7.03;;;15.00;97.90;;;;;;4932960;29;20067;-88
2023/09/05 03:58:32;;;;;;;11.45;6.72;;;15.00;97.80;;;;;;4934961;29;20020;-90
2023/09/05 04:01:02;;;;;;;17.73;7.38;;;15.00;97.80;;;;;;4945169;28;20335;-91
2023/09/05 04:03:32;;;;;;;16.60;7.78;;;15.10;97.80;;;;;;4925064;29;20028;-92
2023/09/05 04:06:01;;;;;;;11.48;7.47;;;15.10;97.60;;;;;;4945629;29;20135;-93
2023/09/05 04:08:28;;;;;;;9.80;6.57;;;15.20;97.50;;;;;;4961032;29;20106;-92
2023/09/05 04:10:59;;;;;;;9.55;6.63;;;15.20;97.40;;;;;;4953087;29;20610;-93
2023/09/05 04:13:27;;;;;;;11.57;7.28;;;15.30;97.30;;;;;;4936423;29;20752;-92
2023/09/05 04:15:55;;;;;;;12.95;7.22;;;15.30;97.40;;;;;;4926212;29;20032;-92
2023/09/05 04:18:20;;;;;;;12.93;7.63;;;15.40;97.30;;;;;;4926829;29;20036;-94
2023/09/05 04:20:55;;;;;;;8.25;6.78;;;15.50;97.40;;;;;;4940614;29;20556;-91
2023/09/05 04:23:21;;;;;;;8.32;6.63;;;15.60;97.30;;;;;;4934778;29;20571;-94
2023/09/05 04:25:55;;;;;;;11.55;7.30;;;16.00;96.90;;;;;;4926047;29;20024;-91
2023/09/05 04:28:21;;;;;;;14.32;7.45;;;16.50;95.90;;;;;;4938364;29;20095;-91
2023/09/05 04:30:47;;;;;;;15.48;7.03;;;17.00;94.80;;;;;;4936386;29;20027;-89
2023/09/05 04:33:16;;;;;;;15.77;7.10;;;17.60;93.60;;;;;;4936699;29;20040;-91
2023/09/05 04:35:41;;;;;;;10.40;6.85;;;18.20;92.70;;;;;;4937525;29;20030;-90
2023/09/05 04:38:09;;;;;;;10.48;6.53;;;18.60;91.40;;;;;;4939896;29;20130;-91
2023/09/05 04:40:35;;;;;;;;;;;19.10;90.50;;;;;;4926380;29;20048;-90
2023/09/05 04:43:03;;;;;;;8.93;7.70;;;19.50;90.40;;;;;;4925306;29;19974;-92
2023/09/05 04:45:29;;;;;;;9.93;7.20;;;19.80;87.50;;;;;;4951050;29;20102;-90
2023/09/05 04:47:55;;;;;;;10.57;7.07;;;20.20;86.00;;;;;;4938450;29;20529;-91
2023/09/05 04:50:24;;;;;;;16.63;7.90;;;20.60;84.90;;;;;;4927161;29;20028;-90
2023/09/05 04:52:50;;;;;;;15.50;8.10;;;20.90;82.90;;;;;;4929350;29;20160;-90
2023/09/05 04:55:16;;;;;;;10.82;7.38;;;20.60;81.50;;;;;;4945340;29;20066;-89
2023/09/05 04:57:42;;;;;;;15.25;10.25;;;19.90;83.00;;;;;;4918476;29;20522;-91
2023/09/05 05:00:13;;;;;;;16.67;8.32;;;19.30;84.90;;;;;;4953547;28;20039;-90
2023/09/05 05:02:39;;;;;;;12.27;7.78;;;18.70;86.90;;;;;;4938735;29;20034;-89
2023/09/05 05:05:06;;;;;;;15.48;8.40;;;18.20;89.10;;;;;;4953232;29;20023;-90
2023/09/05 05:07:32;;;;;;;13.70;8.20;;;17.80;90.30;;;;;;4961677;28;20047;-90
2023/09/05 05:09:58;;;;;;;12.68;7.65;;;17.40;90.90;;;;;;4949857;29;20031;-89
2023/09/05 05:12:24;;;;;;;9.70;7.03;;;17.30;91.50;;;;;;4936296;29;20552;-92
2023/09/05 05:14:50;;;;;;;13.20;8.02;;;17.50;92.20;;;;;;4959211;28;20038;-92
2023/09/05 05:17:16;;;;;;;18.80;8.50;;;18.50;91.50;;;;;;4951530;29;20027;-89
2023/09/05 05:19:41;;;;;;;9.95;7.78;;;19.40;88.30;;;;;;4937315;29;20040;-89
2023/09/05 05:22:07;;;;;;;17.15;7.95;;;19.50;86.00;;;;;;4950990;29;20023;-88
2023/09/05 05:24:33;;;;;;;13.18;7.80;;;19.10;86.60;;;;;;4951383;29;20034;-89
2023/09/05 05:27:01;;;;;;;13.18;8.07;;;18.60;88.00;;;;;;4948066;29;20092;-90
2023/09/05 05:29:32;;;;;;;14.23;8.45;;;18.20;90.00;;;;;;4941831;29;20048;-91
2023/09/05 05:31:58;;;;;;;12.40;8.68;;;17.90;90.30;;;;;;4943673;28;20425;-88
2023/09/05 05:34:24;;;;;;;16.73;8.40;;;17.70;90.80;;;;;;4955939;28;20028;-89
2023/09/05 05:36:50;;;;;;;20.08;9.52;;;17.60;91.30;;;;;;4956659;29;20023;-92
2023/09/05 05:39:16;;;;;;;20.10;8.65;;;17.50;91.50;;;;;;4957466;29;20031;-94
2023/09/05 05:41:49;;;;;;;16.88;8.07;;;17.40;91.60;;;;;;4952400;29;20092;-93
2023/09/05 05:44:15;;;;;;;18.45;9.43;;;17.40;91.70;;;;;;4932107;29;20028;-94
2023/09/05 05:46:41;;;;;;;16.10;7.80;;;17.40;91.80;;;;;;4949872;29;20095;-90
2023/09/05 05:49:08;;;;;;;15.30;8.10;;;17.40;91.80;;;;;;4934372;29;20422;-93
2023/09/05 05:51:35;;;;;;;12.38;9.07;;;17.50;91.70;;;;;;4952784;29;20036;-91
2023/09/05 05:54:03;;;;;;;17.52;8.60;;;17.50;91.60;;;;;;4953248;29;20114;-92
2023/09/05 05:56:30;;;;;;;12.00;7.97;;;17.60;91.60;;;;;;4953391;29;20024;-90
2023/09/05 05:58:56;;;;;;;10.77;7.88;;;17.70;91.30;;;;;;4946199;29;20050;-93
2023/09/05 06:01:21;;;;;;;14.75;7.57;;;18.80;90.70;;;;;;4948660;29;20032;-88
2023/09/05 06:03:48;;;;;;;13.02;8.73;;;20.50;86.80;;;;;;4945874;29;20039;-93
2023/09/05 06:06:14;;;;;;;12.63;7.15;;;22.60;80.90;;;;;;4951914;29;20134;-89
2023/09/05 06:08:40;;;;;;;15.63;7.55;;;24.40;72.70;;;;;;4942475;29;20119;-88
2023/09/05 06:11:06;;;;;;;10.80;6.45;;;26.10;69.20;;;;;;4951038;29;20043;-89
2023/09/05 06:13:32;;;;;;;10.73;7.23;;;27.30;62.50;;;;;;4942402;29;20032;-88
2023/09/05 06:15:59;;;;;;;15.23;7.85;;;28.00;60.30;;;;;;4953413;29;20051;-91
2023/09/05 06:18:25;;;;;;;8.77;6.25;;;28.80;58.20;;;;;;4905060;29;20044;-88
2023/09/05 06:20:51;;;;;;;13.73;6.65;;;29.50;55.70;;;;;;4894855;29;20032;-92
2023/09/05 06:23:17;;;;;;;18.75;7.40;;;29.60;54.00;;;;;;4907273;29;20060;-93
2023/09/05 06:25:44;;;;;;;14.57;7.72;;;29.80;53.40;;;;;;4916301;29;20040;-93
2023/09/05 06:28:27;;;;;;;16.55;7.25;;;30.00;52.90;;;;;;4931381;29;20059;-87
2023/09/05 06:31:17;;;;;;;12.63;6.65;;;;;;;;;;4935677;29;20021;-87
2023/09/05 06:34:00;;;;;;;13.45;8.20;;;30.10;52.20;;;;;;4938578;29;20044;-86
2023/09/05 06:36:34;;;;;;;12.03;7.57;;;31.00;50.40;;;;;;4928319;29;20025;-88
2023/09/05 06:39:01;;;;;;;11.05;6.53;;;;;;;;;;4919798;29;20053;-83
2023/09/05 06:41:27;;;;;;;14.32;6.20;;;;;;;;;;4920130;29;20037;-83
2023/09/05 06:43:55;;;;;;;8.00;4.60;;;;;;;;;;4905247;29;20117;-83
2023/09/05 06:46:21;;;;;;;13.30;6.25;;;;;;;;;;4929354;29;20016;-82
2023/09/05 06:48:52;;;;;;;10.25;5.13;;;31.10;49.70;;;;;;4917298;29;20039;-85
2023/09/05 06:51:19;;;;;;;13.98;5.22;;;32.30;47.00;;;;;;4921748;29;20084;-89
2023/09/05 06:53:48;;;;;;;11.82;4.72;;;32.40;45.90;;;;;;4921487;29;20081;-85
2023/09/05 06:56:17;;;;;;;19.10;5.47;;;32.50;45.90;;;;;;4904946;29;20028;-85
2023/09/05 06:58:50;;;;;;;11.00;5.65;;;33.10;46.00;;;;;;4924519;29;20044;-88
2023/09/05 07:01:44;;;;;;;17.17;5.10;;;33.70;43.80;;;;;;4908108;29;20025;-87
2023/09/05 07:04:12;;;;;;;17.67;5.18;;;33.70;43.80;;;;;;4923703;28;20048;-91
2023/09/05 07:06:41;;;;;;;21.10;6.70;;;33.50;43.60;;;;;;4942936;29;20028;-95
2023/09/05 07:12:50;;;;;;;13.20;5.40;;;33.50;43.90;;;;;;4909459;29;20040;-93
2023/09/05 07:15:16;;;;;;;10.00;4.70;;;33.70;43.40;;;;;;4924367;29;20025;-95
2023/09/05 07:20:52;;;;;;;16.80;4.60;;;34.40;42.40;;;;;;4938355;29;20059;-94
2023/09/05 07:23:18;;;;;;;8.40;4.53;;;34.30;41.30;;;;;;4941866;29;20028;-95
2023/09/05 07:25:44;;;;;;;12.30;4.78;;;34.10;41.30;;;;;;4941553;29;20024;-92
2023/09/05 07:28:16;;;;;;;38.55;7.25;;;34.20;41.20;;;;;;4953682;28;20090;-89
2023/09/05 07:30:43;;;;;;;9.82;3.05;;;34.40;41.00;;;;;;4944482;28;20118;-93
2023/09/05 07:33:10;;;;;;;11.10;3.25;;;35.00;40.00;;;;;;4939844;29;20028;-92
2023/09/05 07:35:36;;;;;;;7.45;2.80;;;34.90;39.50;;;;;;4945226;28;20104;-92
2023/09/05 07:38:02;;;;;;;3.77;2.50;;;35.00;38.90;;;;;;4958331;28;20024;-95
2023/09/05 07:40:28;;;;;;;4.50;2.30;;;34.90;38.40;;;;;;4945837;29;20303;-95
2023/09/05 07:42:55;;;;;;;3.20;2.40;;;34.70;38.30;;;;;;4940786;29;20051;-94
2023/09/05 07:45:25;;;;;;;5.95;2.53;;;34.60;38.80;;;;;;4949336;29;20051;-94
2023/09/05 07:47:53;;;;;;;9.23;3.33;;;34.60;39.50;;;;;;4954966;29;20092;-93
2023/09/05 07:50:22;;;;;;;7.45;3.45;;;35.00;38.40;;;;;;4958436;29;20031;-94
2023/09/05 07:53:34;;;;;;;5.65;3.20;;;35.30;38.80;;;;;;4956901;29;20020;-96
2023/09/05 07:56:03;;;;;;;9.30;3.60;;;35.60;38.50;;;;;;4932443;28;20024;-93
2023/09/05 07:58:45;;;;;;;7.20;4.93;;;35.90;37.50;;;;;;4944308;28;20026;-90
2023/09/05 08:01:55;;;;;;;4.63;3.30;;;36.00;37.60;;;;;;4960897;28;20060;-96
2023/09/05 08:04:23;;;;;;;10.23;2.85;;;;;;;;;;4961273;28;20040;-94
2023/09/05 08:06:55;;;;;;;6.80;3.00;;;;;;;;;;4942122;29;20032;-94
2023/09/05 08:09:27;;;;;;;15.65;4.50;;;;;;;;;;4958416;28;20070;-96
2023/09/05 08:11:56;;;;;;;3.97;2.30;;;36.10;37.00;;;;;;4957872;29;20133;-95
2023/09/05 08:14:22;;;;;;;5.88;3.47;;;37.30;35.90;;;;;;4937322;29;20032;-94
2023/09/05 08:16:49;;;;;;;9.02;3.05;;;37.10;35.10;;;;;;4925126;29;20020;-91
2023/09/05 08:19:18;;;;;;;5.85;2.60;;;37.20;35.10;;;;;;4941652;29;20092;-94
2023/09/05 08:21:44;;;;;;;6.60;2.53;;;37.30;34.90;;;;;;4951620;29;20031;-95
2023/09/05 08:24:13;;;;;;;5.10;3.00;;;37.30;34.90;;;;;;4958263;28;20032;-95
2023/09/05 08:26:40;;;;;;;4.13;2.90;;;37.30;35.20;;;;;;4957662;29;20054;-92
2023/09/05 08:29:14;;;;;;;10.52;6.35;;;36.90;35.30;;;;;;4980377;28;20047;-94
2023/09/05 08:31:41;;;;;;;8.95;3.70;;;36.70;35.80;;;;;;4997204;28;20023;-94
2023/09/05 08:34:08;;;;;;;14.25;3.95;;;37.00;36.30;;;;;;4995010;28;20090;-92
2023/09/05 08:36:34;;;;;;;7.95;4.20;;;37.50;35.60;;;;;;4990674;28;20027;-93
2023/09/05 08:39:04;;;;;;;5.43;2.97;;;38.20;34.90;;;;;;4978788;28;20031;-93
2023/09/05 08:42:02;;;;;;;9.93;3.53;;;38.70;34.90;;;;;;4961758;28;20019;-94
2023/09/05 08:44:28;;;;;;;11.27;3.95;;;38.70;35.00;;;;;;4930148;28;20027;-90
2023/09/05 08:46:56;;;;;;;10.77;4.90;;;37.10;35.20;;;;;;4991756;28;20099;-85
2023/09/05 08:49:22;;;;;;;7.95;3.60;;;;;;;;;;4947654;28;20139;-91
2023/09/05 08:51:53;;;;;;;14.35;4.60;;;34.90;36.90;;;;;;4962723;28;20011;-90
2023/09/05 08:54:20;;;;;;;7.50;3.90;;;33.80;39.90;;;;;;4914055;29;20031;-93
2023/09/05 08:56:48;;;;;;;7.93;3.45;;;35.20;39.20;;;;;;4973941;28;20087;-94
2023/09/05 08:59:17;;;;;;;5.13;3.00;;;36.40;37.00;;;;;;4968360;28;20027;-94
2023/09/05 09:01:46;;;;;;;8.82;3.58;;;36.20;36.00;;;;;;4982554;28;20039;-92
2023/09/05 09:04:20;;;;;;;10.40;3.97;;;35.00;37.50;;;;;;4988450;28;20043;-93
2023/09/05 09:06:56;;;;;;;7.18;3.35;;;35.60;37.80;;;;;;4988342;28;20115;-94
2023/09/05 09:09:40;;;;;;;8.05;3.80;;;36.80;36.60;;;;;;4972852;29;20047;-95
2023/09/05 09:12:09;;;;;;;5.85;2.88;;;38.00;36.10;;;;;;4973764;29;20027;-96
2023/09/05 09:14:35;;;;;;;6.88;3.10;;;38.90;34.40;;;;;;4975410;28;20011;-96
2023/09/05 09:17:05;;;;;;;7.20;2.72;;;39.00;33.90;;;;;;4975798;29;20038;-93
2023/09/05 09:19:32;;;;;;;8.07;2.30;;;39.20;33.10;;;;;;4957610;29;20028;-94
2023/09/05 09:22:13;;;;;;;33.08;6.32;;;39.00;33.10;;;;;;4959908;28;20023;-92
2023/09/05 09:24:46;;;;;;;12.27;3.40;;;39.50;33.60;;;;;;4952455;28;20027;-90
2023/09/05 09:27:18;;;;;;;5.03;2.60;;;39.70;32.50;;;;;;5183530;23;20129;-93
2023/09/05 09:29:55;;;;;;;13.05;2.88;;;39.50;32.30;;;;;;4995181;28;20165;-96
2023/09/05 09:32:24;;;;;;;10.38;2.72;;;39.20;32.90;;;;;;4993571;28;20034;-94
2023/09/05 09:34:51;;;;;;;6.25;2.97;;;39.40;33.00;;;;;;4996512;28;20053;-94
2023/09/05 09:37:24;;;;;;;10.05;2.60;;;39.60;32.00;;;;;;5015182;28;20095;-95
2023/09/05 09:39:59;;;;;;;7.55;2.92;;;39.50;31.90;;;;;;5012883;28;20030;-94
2023/09/05 09:42:29;;;;;;;11.20;2.83;;;39.40;32.00;;;;;;4966471;28;20034;-95
2023/09/05 09:45:06;;;;;;;9.70;5.95;;;39.50;32.20;;;;;;4972008;29;20489;-94
2023/09/05 09:47:40;;;;;;;14.63;4.18;;;40.10;31.90;;;;;;4975083;29;20035;-94
2023/09/05 09:50:07;;;;;;;3.63;1.85;;;40.60;31.40;;;;;;4959103;29;20128;-95
2023/09/05 09:52:43;;;;;;;17.50;4.38;;;40.20;30.10;;;;;;4962160;28;20039;-92
2023/09/05 09:55:25;;;;;;;9.48;2.00;;;39.70;31.10;;;;;;4953965;29;20056;-94
2023/09/05 09:58:00;;;;;;;7.63;3.10;;;39.60;31.50;;;;;;4884113;29;20038;-93
2023/09/05 10:00:40;;;;;;;;;;;39.20;31.40;;;;;;4935218;29;20111;-94
2023/09/05 10:03:24;;;;;;;6.93;2.17;;;38.60;32.60;;;;;;4933890;29;19949;-96
2023/09/05 10:05:52;;;;;;;14.13;4.10;;;39.10;32.40;;;;;;4896206;29;20037;-93
2023/09/05 10:08:20;;;;;;;8.60;3.38;;;39.70;31.90;;;;;;4894615;29;20041;-94
2023/09/05 10:10:52;;;;;;;23.95;8.32;;;40.10;31.20;;;;;;4898351;29;20136;-95
2023/09/05 10:13:22;;;;;;;7.05;3.35;;;40.80;30.90;;;;;;4880130;29;20057;-94
2023/09/05 10:16:08;;;;;;;5.28;2.25;;;41.00;30.60;;;;;;4892916;29;20072;-94
2023/09/05 10:18:43;;;;;;;14.43;4.50;;;40.70;30.30;;;;;;4862209;29;20025;-96
2023/09/05 10:21:11;;;;;;;5.13;2.88;;;40.50;30.80;;;;;;4891074;29;20272;-96
2023/09/05 10:23:38;;;;;;;11.77;3.83;;;39.50;30.80;;;;;;4923483;29;20029;-95
2023/09/05 10:26:07;;;;;;;12.70;3.58;;;37.80;31.50;;;;;;4914847;29;20095;-92
2023/09/05 10:28:34;;;;;;;5.72;2.83;;;;;;;;;;4890381;29;20042;-91
2023/09/05 10:31:13;;;;;;;30.60;8.40;;;35.90;32.80;;;;;;4868522;29;20049;-96
2023/09/05 10:33:44;;;;;;;8.65;4.05;;;31.90;37.40;;;;;;4898243;29;20041;-94
2023/09/05 10:36:28;;;;;;;11.52;3.67;;;;;;;;;;4902401;29;20037;-86
2023/09/05 10:38:57;;;;;;;5.85;3.17;;;;;;;;;;4892977;29;20045;-88
2023/09/05 10:41:38;;;;;;;13.98;5.55;;;;;;;;;;4871204;29;20025;-95
2023/09/05 10:44:08;;;;;;;7.90;3.75;;;;;;;;;;4886395;29;20042;-96
2023/09/05 10:46:34;;;;;;;5.13;3.25;;;;;;;;;;4886717;29;20093;-93
2023/09/05 10:49:10;;;;;;;8.77;3.87;;;;;;;;;;4873112;29;20052;-94
2023/09/05 10:51:37;;;;;;;10.40;3.35;;;;;;;;;;4880764;29;20052;-94
2023/09/05 10:54:22;;;;;;;14.50;3.92;;;;;;;;;;4883799;29;20423;-96
2023/09/05 10:56:50;;;;;;;19.13;4.80;;;;;;;;;;4884171;29;20550;-94
2023/09/05 10:59:26;;;;;;;8.32;4.30;;;30.50;37.60;;;;;;4889117;29;20056;-95
2023/09/05 11:02:01;;;;;;;6.43;3.88;;;25.40;45.10;;;;;;4904979;29;20025;-91
2023/09/05 11:04:34;;;;;;;7.05;3.58;;;25.00;44.80;;;;;;4892977;29;20036;-92
2023/09/05 11:07:09;;;;;;;18.27;5.47;;;24.70;44.70;;;;;;4886546;29;20017;-91
2023/09/05 11:09:41;;;;;;;9.13;3.75;;;24.40;45.20;;;;;;4904583;29;20040;-94
2023/09/05 11:12:10;;;;;;;8.18;3.95;;;24.20;45.30;;;;;;4896503;29;20037;-92
2023/09/05 11:14:36;;;;;;;10.73;3.88;;;24.20;45.50;;;;;;4900996;29;20120;-95
2023/09/05 11:17:02;;;;;;;6.03;3.15;;;24.20;44.20;;;;;;4902587;29;20029;-94
2023/09/05 11:19:47;;;;;;;9.52;4.32;;;24.10;44.10;;;;;;4920340;29;20045;-96
2023/09/05 11:22:18;;;;;;;14.98;4.72;;;24.00;44.60;;;;;;4920908;29;20029;-96
2023/09/05 11:24:47;;;;;;;8.68;4.35;;;24.00;45.30;;;;;;4911613;29;20113;-95
2023/09/05 11:27:17;;;;;;;9.45;4.20;;;23.90;45.90;;;;;;4917321;29;20051;-90
2023/09/05 11:29:45;;;;;;;9.45;3.95;;;23.90;46.20;;;;;;4949645;29;20054;-94
2023/09/05 11:32:49;;;;;;;;;;;;;;;;;;;;;
2023/09/05 11:35:17;;;;;;;6.95;3.85;;;23.90;47.50;;;;;;4973307;28;20061;-95
2023/09/05 11:37:45;;;;;;;7.53;4.28;;;24.00;46.90;;;;;;4975322;28;20158;-95
2023/09/05 11:40:13;;;;;;;6.53;3.33;;;24.00;46.40;;;;;;4980659;28;20030;-94
2023/09/05 11:42:39;;;;;;;14.55;4.78;;;24.00;46.20;;;;;;4990547;28;20038;-96
2023/09/05 11:45:19;;;;;;;11.20;4.53;;;24.00;46.60;;;;;;4970387;29;20043;-95
2023/09/05 11:47:45;;;;;;;24.95;5.38;;;24.00;46.90;;;;;;4976981;28;20027;-94
2023/09/05 11:50:13;;;;;;;6.22;4.25;;;24.00;47.00;;;;;;4976783;29;20087;-95
2023/09/05 11:52:45;;;;;;;14.93;5.50;;;24.00;46.80;;;;;;4974314;29;20027;-95
2023/09/05 11:55:11;;;;;;;6.65;4.15;;;23.90;47.30;;;;;;4961608;28;20029;-96
2023/09/05 11:57:40;;;;;;;17.88;5.70;;;23.90;47.70;;;;;;4992369;28;20059;-96
2023/09/05 12:00:15;;;;;;;7.13;4.63;;;23.80;47.80;;;;;;4992490;28;20045;-94
2023/09/05 12:02:41;;;;;;;8.60;4.18;;;23.80;47.10;;;;;;4992035;28;20019;-95
2023/09/05 12:05:09;;;;;;;14.27;5.43;;;23.70;47.40;;;;;;4956684;28;20035;-94
2023/09/05 12:07:36;;;;;;;21.77;6.43;;;23.60;47.50;;;;;;4957289;28;20404;-94
2023/09/05 12:10:02;;;;;;;11.40;4.30;;;23.50;47.90;;;;;;4992783;28;20023;-96
2023/09/05 12:12:44;;;;;;;6.03;4.03;;;23.50;47.80;;;;;;4993425;28;20015;-96
2023/09/05 12:15:10;;;;;;;12.55;4.68;;;23.40;47.80;;;;;;4966569;29;20277;-96
2023/09/05 12:17:36;;;;;;;12.68;5.22;;;23.30;47.50;;;;;;4977273;29;20078;-96
2023/09/05 12:20:10;;;;;;;11.13;4.63;;;23.20;47.80;;;;;;4980263;28;20027;-91
2023/09/05 12:22:37;;;;;;;35.75;8.60;;;23.10;48.30;;;;;;4979316;28;20058;-96
2023/09/05 12:25:11;;;;;;;17.08;6.03;;;23.00;49.10;;;;;;4963800;29;20031;-92
2023/09/05 12:27:39;;;;;;;34.33;7.90;;;22.90;49.60;;;;;;4995162;28;20057;-92
2023/09/05 12:30:09;;;;;;;25.05;7.82;;;22.80;50.30;;;;;;4998682;28;20041;-92
2023/09/05 12:32:37;;;;;;;30.95;11.13;;;22.80;50.30;;;;;;4983864;28;20015;-91
2023/09/05 12:35:03;;;;;;;22.77;7.60;;;22.80;50.20;;;;;;4977616;28;20030;-94
2023/09/05 12:37:30;;;;;;;12.57;5.72;;;22.80;50.20;;;;;;4973590;29;20087;-94
2023/09/05 12:39:56;;;;;;;13.13;4.97;;;22.90;50.40;;;;;;4978360;28;20058;-96
2023/09/05 12:42:28;;;;;;;14.93;5.05;;;23.20;49.80;;;;;;4954029;29;20042;-96
2023/09/05 12:44:57;;;;;;;35.55;6.38;;;23.40;49.40;;;;;;4948848;29;20046;-94
2023/09/05 12:47:26;;;;;;;15.57;5.20;;;23.70;49.30;;;;;;4921138;29;20047;-96
2023/09/05 12:50:05;;;;;;;35.38;9.35;;;23.80;48.50;;;;;;4936375;29;20031;-96
2023/09/05 12:52:32;;;;;;;24.48;7.15;;;23.80;48.30;;;;;;4881690;29;20120;-95
2023/09/05 12:55:03;;;;;;;13.27;5.45;;;23.60;48.90;;;;;;4919526;29;20027;-93
2023/09/05 12:57:29;;;;;;;8.65;4.38;;;23.50;48.90;;;;;;4961641;29;20026;-95
2023/09/05 12:59:56;;;;;;;15.65;7.50;;;23.20;49.00;;;;;;4954300;29;20055;-94
2023/09/05 13:02:28;;;;;;;40.88;14.07;;;23.20;49.40;;;;;;4946662;29;20035;-96
2023/09/05 13:04:55;;;;;;;41.00;11.15;;;23.10;49.80;;;;;;4978868;28;20032;-94